sensor_id;sensor_type;location;lat;lon;timestamp;P1;durP1;ratioP1;P2;durP2;ratioP2
23449;SDS011;11897;45.438;12.128;2023-04-01T00:00:44;13.03;;;6.90;;
23449;SDS011;11897;45.438;12.128;2023-04-01T00:03:11;14.67;;;7.37;;
23449;SDS011;11897;45.438;12.128;2023-04-01T00:05:39;19.50;;;7.83;;
23449;SDS011;11897;45.438;12.128;2023-04-01T00:08:06;16.23;;;8.27;;
23449;SDS011;11897;45.438;12.128;2023-04-01T00:10:33;14.23;;;7.13;;
23449;SDS011;11897;45.438;12.128;2023-04-01T00:12:59;20.80;;;8.57;;
23449;SDS011;11897;45.438;12.128;2023-04-01T00:15:26;15.63;;;8.27;;
23449;SDS011;11897;45.438;12.128;2023-04-01T00:17:53;18.73;;;8.63;;
23449;SDS011;11897;45.438;12.128;2023-04-01T00:20:24;13.17;;;7.33;;
23449;SDS011;11897;45.438;12.128;2023-04-01T00:22:55;12.37;;;6.60;;
23449;SDS011;11897;45.438;12.128;2023-04-01T00:25:22;17.00;;;7.57;;
23449;SDS011;11897;45.438;12.128;2023-04-01T00:27:50;13.63;;;7.73;;
23449;SDS011;11897;45.438;12.128;2023-04-01T00:30:16;12.97;;;6.80;;
23449;SDS011;11897;45.438;12.128;2023-04-01T00:32:43;13.63;;;7.23;;
23449;SDS011;11897;45.438;12.128;2023-04-01T00:35:10;13.53;;;6.87;;
23449;SDS011;11897;45.438;12.128;2023-04-01T00:37:37;16.53;;;7.93;;
23449;SDS011;11897;45.438;12.128;2023-04-01T00:40:07;22.37;;;9.27;;
23449;SDS011;11897;45.438;12.128;2023-04-01T00:42:34;21.10;;;10.00;;
23449;SDS011;11897;45.438;12.128;2023-04-01T00:47:42;17.27;;;8.23;;
23449;SDS011;11897;45.438;12.128;2023-04-01T00:50:08;21.63;;;8.53;;
23449;SDS011;11897;45.438;12.128;2023-04-01T00:52:35;16.87;;;8.47;;
23449;SDS011;11897;45.438;12.128;2023-04-01T00:55:03;16.63;;;8.23;;
23449;SDS011;11897;45.438;12.128;2023-04-01T00:57:34;18.83;;;8.43;;
23449;SDS011;11897;45.438;12.128;2023-04-01T01:00:02;17.13;;;8.60;;
23449;SDS011;11897;45.438;12.128;2023-04-01T01:02:30;18.23;;;7.53;;
23449;SDS011;11897;45.438;12.128;2023-04-01T01:04:57;18.43;;;8.60;;
23449;SDS011;11897;45.438;12.128;2023-04-01T01:07:26;18.27;;;8.47;;
23449;SDS011;11897;45.438;12.128;2023-04-01T01:09:55;16.17;;;7.90;;
23449;SDS011;11897;45.438;12.128;2023-04-01T01:12:25;16.50;;;7.53;;
23449;SDS011;11897;45.438;12.128;2023-04-01T01:14:58;14.10;;;8.27;;
23449;SDS011;11897;45.438;12.128;2023-04-01T01:17:32;27.77;;;15.90;;
23449;SDS011;11897;45.438;12.128;2023-04-01T01:20:14;18.90;;;8.90;;
23449;SDS011;11897;45.438;12.128;2023-04-01T01:22:49;20.03;;;9.00;;
23449;SDS011;11897;45.438;12.128;2023-04-01T01:25:23;15.70;;;7.73;;
23449;SDS011;11897;45.438;12.128;2023-04-01T01:27:54;12.90;;;8.60;;
23449;SDS011;11897;45.438;12.128;2023-04-01T01:30:35;13.33;;;8.13;;
23449;SDS011;11897;45.438;12.128;2023-04-01T01:33:06;15.90;;;8.13;;
23449;SDS011;11897;45.438;12.128;2023-04-01T01:35:37;20.47;;;8.43;;
23449;SDS011;11897;45.438;12.128;2023-04-01T01:38:13;14.80;;;7.70;;
23449;SDS011;11897;45.438;12.128;2023-04-01T01:40:44;15.93;;;7.40;;
23449;SDS011;11897;45.438;12.128;2023-04-01T01:43:13;13.63;;;6.60;;
23449;SDS011;11897;45.438;12.128;2023-04-01T01:45:44;13.10;;;7.17;;
23449;SDS011;11897;45.438;12.128;2023-04-01T01:48:12;16.97;;;7.73;;
23449;SDS011;11897;45.438;12.128;2023-04-01T01:50:41;19.50;;;8.87;;
23449;SDS011;11897;45.438;12.128;2023-04-01T01:53:10;15.43;;;8.10;;
23449;SDS011;11897;45.438;12.128;2023-04-01T01:55:38;15.67;;;8.60;;
23449;SDS011;11897;45.438;12.128;2023-04-01T01:58:06;17.20;;;8.00;;
23449;SDS011;11897;45.438;12.128;2023-04-01T02:00:38;15.20;;;8.27;;
23449;SDS011;11897;45.438;12.128;2023-04-01T02:03:07;17.27;;;8.40;;
23449;SDS011;11897;45.438;12.128;2023-04-01T02:05:36;16.57;;;7.60;;
23449;SDS011;11897;45.438;12.128;2023-04-01T02:08:09;17.27;;;7.70;;
23449;SDS011;11897;45.438;12.128;2023-04-01T02:10:39;18.90;;;8.00;;
23449;SDS011;11897;45.438;12.128;2023-04-01T02:13:09;17.33;;;7.63;;
23449;SDS011;11897;45.438;12.128;2023-04-01T02:15:37;14.80;;;6.97;;
23449;SDS011;11897;45.438;12.128;2023-04-01T02:18:07;15.77;;;6.87;;
23449;SDS011;11897;45.438;12.128;2023-04-01T02:20:34;17.63;;;7.43;;
23449;SDS011;11897;45.438;12.128;2023-04-01T02:23:02;17.67;;;7.53;;
23449;SDS011;11897;45.438;12.128;2023-04-01T02:25:33;16.73;;;8.33;;
23449;SDS011;11897;45.438;12.128;2023-04-01T02:28:00;14.60;;;8.13;;
23449;SDS011;11897;45.438;12.128;2023-04-01T02:30:29;13.40;;;6.33;;
23449;SDS011;11897;45.438;12.128;2023-04-01T02:32:56;16.50;;;7.77;;
23449;SDS011;11897;45.438;12.128;2023-04-01T02:35:23;17.83;;;8.63;;
23449;SDS011;11897;45.438;12.128;2023-04-01T02:37:49;13.53;;;7.03;;
23449;SDS011;11897;45.438;12.128;2023-04-01T02:40:16;15.77;;;7.93;;
23449;SDS011;11897;45.438;12.128;2023-04-01T02:42:45;24.37;;;8.90;;
23449;SDS011;11897;45.438;12.128;2023-04-01T02:45:12;17.00;;;7.47;;
23449;SDS011;11897;45.438;12.128;2023-04-01T02:47:40;12.63;;;7.37;;
23449;SDS011;11897;45.438;12.128;2023-04-01T02:50:07;14.97;;;8.10;;
23449;SDS011;11897;45.438;12.128;2023-04-01T02:52:34;13.10;;;7.73;;
23449;SDS011;11897;45.438;12.128;2023-04-01T02:55:02;15.30;;;7.93;;
23449;SDS011;11897;45.438;12.128;2023-04-01T02:57:31;17.00;;;8.23;;
23449;SDS011;11897;45.438;12.128;2023-04-01T02:59:59;14.30;;;6.83;;
23449;SDS011;11897;45.438;12.128;2023-04-01T03:02:26;12.47;;;6.77;;
23449;SDS011;11897;45.438;12.128;2023-04-01T03:04:53;19.43;;;8.13;;
23449;SDS011;11897;45.438;12.128;2023-04-01T03:07:19;13.53;;;6.57;;
23449;SDS011;11897;45.438;12.128;2023-04-01T03:09:47;15.40;;;6.93;;
23449;SDS011;11897;45.438;12.128;2023-04-01T03:12:14;12.93;;;6.77;;
23449;SDS011;11897;45.438;12.128;2023-04-01T03:14:48;12.57;;;6.50;;
23449;SDS011;11897;45.438;12.128;2023-04-01T03:17:17;15.23;;;7.57;;
23449;SDS011;11897;45.438;12.128;2023-04-01T03:19:44;15.90;;;7.83;;
23449;SDS011;11897;45.438;12.128;2023-04-01T03:22:11;14.33;;;7.13;;
23449;SDS011;11897;45.438;12.128;2023-04-01T03:24:38;16.73;;;7.63;;
23449;SDS011;11897;45.438;12.128;2023-04-01T03:27:05;13.83;;;7.47;;
23449;SDS011;11897;45.438;12.128;2023-04-01T03:29:31;14.73;;;7.00;;
23449;SDS011;11897;45.438;12.128;2023-04-01T03:31:59;12.73;;;7.57;;
23449;SDS011;11897;45.438;12.128;2023-04-01T03:34:27;14.40;;;7.60;;
23449;SDS011;11897;45.438;12.128;2023-04-01T03:36:54;15.97;;;7.93;;
23449;SDS011;11897;45.438;12.128;2023-04-01T03:39:21;12.60;;;7.50;;
23449;SDS011;11897;45.438;12.128;2023-04-01T03:41:49;13.57;;;6.83;;
23449;SDS011;11897;45.438;12.128;2023-04-01T03:44:15;12.57;;;7.70;;
23449;SDS011;11897;45.438;12.128;2023-04-01T03:46:45;12.17;;;6.30;;
23449;SDS011;11897;45.438;12.128;2023-04-01T03:49:11;16.40;;;8.20;;
23449;SDS011;11897;45.438;12.128;2023-04-01T03:51:40;15.00;;;7.23;;
23449;SDS011;11897;45.438;12.128;2023-04-01T03:54:07;17.20;;;7.83;;
23449;SDS011;11897;45.438;12.128;2023-04-01T03:56:38;12.33;;;6.70;;
23449;SDS011;11897;45.438;12.128;2023-04-01T03:59:05;10.27;;;6.03;;
23449;SDS011;11897;45.438;12.128;2023-04-01T04:01:32;43.23;;;6.13;;
23449;SDS011;11897;45.438;12.128;2023-04-01T04:03:59;14.90;;;5.93;;
23449;SDS011;11897;45.438;12.128;2023-04-01T04:06:26;13.50;;;7.33;;
23449;SDS011;11897;45.438;12.128;2023-04-01T04:08:55;26.60;;;6.83;;
23449;SDS011;11897;45.438;12.128;2023-04-01T04:11:26;10.03;;;5.67;;
23449;SDS011;11897;45.438;12.128;2023-04-01T04:13:53;12.20;;;6.60;;
23449;SDS011;11897;45.438;12.128;2023-04-01T04:16:23;13.63;;;5.73;;
23449;SDS011;11897;45.438;12.128;2023-04-01T04:18:56;9.30;;;5.20;;
23449;SDS011;11897;45.438;12.128;2023-04-01T04:21:23;11.77;;;6.60;;
23449;SDS011;11897;45.438;12.128;2023-04-01T04:23:51;10.83;;;5.70;;
23449;SDS011;11897;45.438;12.128;2023-04-01T04:26:21;9.20;;;4.97;;
23449;SDS011;11897;45.438;12.128;2023-04-01T04:28:56;22.10;;;5.03;;
23449;SDS011;11897;45.438;12.128;2023-04-01T04:31:24;9.70;;;4.53;;
23449;SDS011;11897;45.438;12.128;2023-04-01T04:33:53;13.13;;;5.57;;
23449;SDS011;11897;45.438;12.128;2023-04-01T04:36:22;9.23;;;4.87;;
23449;SDS011;11897;45.438;12.128;2023-04-01T04:38:50;6.53;;;4.23;;
23449;SDS011;11897;45.438;12.128;2023-04-01T04:41:22;7.60;;;4.20;;
23449;SDS011;11897;45.438;12.128;2023-04-01T04:43:52;7.67;;;4.33;;
23449;SDS011;11897;45.438;12.128;2023-04-01T04:46:20;6.97;;;3.60;;
23449;SDS011;11897;45.438;12.128;2023-04-01T04:48:50;7.07;;;4.40;;
23449;SDS011;11897;45.438;12.128;2023-04-01T04:51:18;7.07;;;4.00;;
23449;SDS011;11897;45.438;12.128;2023-04-01T04:53:45;9.57;;;4.67;;
23449;SDS011;11897;45.438;12.128;2023-04-01T04:56:12;14.93;;;5.03;;
23449;SDS011;11897;45.438;12.128;2023-04-01T04:58:49;8.23;;;5.07;;
23449;SDS011;11897;45.438;12.128;2023-04-01T05:01:20;10.37;;;5.00;;
23449;SDS011;11897;45.438;12.128;2023-04-01T05:03:47;10.10;;;5.97;;
23449;SDS011;11897;45.438;12.128;2023-04-01T05:06:14;12.23;;;6.20;;
23449;SDS011;11897;45.438;12.128;2023-04-01T05:08:46;8.27;;;4.67;;
23449;SDS011;11897;45.438;12.128;2023-04-01T05:11:14;10.60;;;4.73;;
23449;SDS011;11897;45.438;12.128;2023-04-01T05:13:43;12.37;;;6.20;;
23449;SDS011;11897;45.438;12.128;2023-04-01T05:16:14;10.00;;;5.13;;
23449;SDS011;11897;45.438;12.128;2023-04-01T05:18:41;12.00;;;6.40;;
23449;SDS011;11897;45.438;12.128;2023-04-01T05:21:09;10.17;;;5.60;;
23449;SDS011;11897;45.438;12.128;2023-04-01T05:23:35;9.33;;;5.17;;
23449;SDS011;11897;45.438;12.128;2023-04-01T05:26:05;11.00;;;5.47;;
23449;SDS011;11897;45.438;12.128;2023-04-01T05:28:32;11.63;;;5.97;;
23449;SDS011;11897;45.438;12.128;2023-04-01T05:30:59;10.07;;;6.53;;
23449;SDS011;11897;45.438;12.128;2023-04-01T05:33:34;9.90;;;5.33;;
23449;SDS011;11897;45.438;12.128;2023-04-01T05:36:08;9.00;;;5.33;;
23449;SDS011;11897;45.438;12.128;2023-04-01T05:38:35;13.87;;;7.00;;
23449;SDS011;11897;45.438;12.128;2023-04-01T05:41:03;9.00;;;5.53;;
23449;SDS011;11897;45.438;12.128;2023-04-01T05:43:35;13.20;;;5.87;;
23449;SDS011;11897;45.438;12.128;2023-04-01T05:46:23;9.77;;;6.00;;
23449;SDS011;11897;45.438;12.128;2023-04-01T05:48:58;13.67;;;6.83;;
23449;SDS011;11897;45.438;12.128;2023-04-01T05:51:25;14.10;;;6.73;;
23449;SDS011;11897;45.438;12.128;2023-04-01T05:53:52;16.77;;;8.20;;
23449;SDS011;11897;45.438;12.128;2023-04-01T05:56:19;12.47;;;6.60;;
23449;SDS011;11897;45.438;12.128;2023-04-01T05:58:51;8.37;;;5.60;;
23449;SDS011;11897;45.438;12.128;2023-04-01T06:01:19;8.77;;;4.97;;
23449;SDS011;11897;45.438;12.128;2023-04-01T06:03:46;11.13;;;5.53;;
23449;SDS011;11897;45.438;12.128;2023-04-01T06:06:15;12.00;;;6.37;;
23449;SDS011;11897;45.438;12.128;2023-04-01T06:08:42;13.87;;;6.70;;
23449;SDS011;11897;45.438;12.128;2023-04-01T06:11:16;11.73;;;6.37;;
23449;SDS011;11897;45.438;12.128;2023-04-01T06:16:34;16.57;;;7.97;;
23449;SDS011;11897;45.438;12.128;2023-04-01T06:19:09;11.67;;;7.27;;
23449;SDS011;11897;45.438;12.128;2023-04-01T06:21:50;14.40;;;7.70;;
23449;SDS011;11897;45.438;12.128;2023-04-01T06:24:23;10.93;;;6.50;;
23449;SDS011;11897;45.438;12.128;2023-04-01T06:26:56;11.17;;;6.27;;
23449;SDS011;11897;45.438;12.128;2023-04-01T06:32:26;13.83;;;6.80;;
23449;SDS011;11897;45.438;12.128;2023-04-01T06:40:35;10.40;;;6.53;;
23449;SDS011;11897;45.438;12.128;2023-04-01T06:43:11;11.13;;;5.97;;
23449;SDS011;11897;45.438;12.128;2023-04-01T06:46:01;8.57;;;5.60;;
23449;SDS011;11897;45.438;12.128;2023-04-01T06:48:54;9.77;;;5.57;;
23449;SDS011;11897;45.438;12.128;2023-04-01T06:51:56;12.50;;;5.80;;
23449;SDS011;11897;45.438;12.128;2023-04-01T06:54:46;8.13;;;5.33;;
23449;SDS011;11897;45.438;12.128;2023-04-01T06:57:34;12.60;;;6.80;;
23449;SDS011;11897;45.438;12.128;2023-04-01T07:00:03;9.30;;;5.83;;
23449;SDS011;11897;45.438;12.128;2023-04-01T07:02:32;8.67;;;5.87;;
23449;SDS011;11897;45.438;12.128;2023-04-01T07:05:00;7.43;;;4.77;;
23449;SDS011;11897;45.438;12.128;2023-04-01T07:07:30;7.63;;;4.80;;
23449;SDS011;11897;45.438;12.128;2023-04-01T07:10:04;8.30;;;4.43;;
23449;SDS011;11897;45.438;12.128;2023-04-01T07:12:36;7.83;;;5.17;;
23449;SDS011;11897;45.438;12.128;2023-04-01T07:15:28;7.90;;;4.90;;
23449;SDS011;11897;45.438;12.128;2023-04-01T07:17:58;6.67;;;4.33;;
23449;SDS011;11897;45.438;12.128;2023-04-01T07:20:29;11.83;;;5.30;;
23449;SDS011;11897;45.438;12.128;2023-04-01T07:22:58;11.33;;;6.40;;
23449;SDS011;11897;45.438;12.128;2023-04-01T07:25:30;9.63;;;6.63;;
23449;SDS011;11897;45.438;12.128;2023-04-01T07:28:19;9.25;;;6.38;;
23449;SDS011;11897;45.438;12.128;2023-04-01T07:30:58;7.32;;;5.50;;
23449;SDS011;11897;45.438;12.128;2023-04-01T07:33:32;5.72;;;4.03;;
23449;SDS011;11897;45.438;12.128;2023-04-01T07:36:03;8.18;;;4.53;;
23449;SDS011;11897;45.438;12.128;2023-04-01T07:38:31;8.98;;;4.45;;
23449;SDS011;11897;45.438;12.128;2023-04-01T07:41:03;6.65;;;4.18;;
23449;SDS011;11897;45.438;12.128;2023-04-01T07:46:26;5.32;;;3.72;;
23449;SDS011;11897;45.438;12.128;2023-04-01T07:48:57;7.10;;;3.88;;
23449;SDS011;11897;45.438;12.128;2023-04-01T07:51:27;5.30;;;3.63;;
23449;SDS011;11897;45.438;12.128;2023-04-01T07:53:57;5.03;;;3.38;;
23449;SDS011;11897;45.438;12.128;2023-04-01T07:56:30;7.70;;;3.10;;
23449;SDS011;11897;45.438;12.128;2023-04-01T07:59:00;5.80;;;3.30;;
23449;SDS011;11897;45.438;12.128;2023-04-01T08:01:52;5.68;;;3.97;;
23449;SDS011;11897;45.438;12.128;2023-04-01T08:04:28;5.30;;;3.28;;
23449;SDS011;11897;45.438;12.128;2023-04-01T08:06:59;4.68;;;2.90;;
23449;SDS011;11897;45.438;12.128;2023-04-01T08:09:31;5.93;;;4.63;;
23449;SDS011;11897;45.438;12.128;2023-04-01T08:12:23;3.38;;;2.75;;
23449;SDS011;11897;45.438;12.128;2023-04-01T08:15:02;4.22;;;3.17;;
23449;SDS011;11897;45.438;12.128;2023-04-01T08:17:55;5.47;;;3.70;;
23449;SDS011;11897;45.438;12.128;2023-04-01T08:20:26;6.25;;;4.05;;
23449;SDS011;11897;45.438;12.128;2023-04-01T08:22:57;4.82;;;3.17;;
23449;SDS011;11897;45.438;12.128;2023-04-01T08:25:31;4.82;;;3.50;;
23449;SDS011;11897;45.438;12.128;2023-04-01T08:28:00;6.18;;;4.20;;
23449;SDS011;11897;45.438;12.128;2023-04-01T08:30:28;4.40;;;3.08;;
23449;SDS011;11897;45.438;12.128;2023-04-01T08:32:59;5.35;;;3.70;;
23449;SDS011;11897;45.438;12.128;2023-04-01T08:35:29;6.63;;;4.00;;
23449;SDS011;11897;45.438;12.128;2023-04-01T08:38:01;5.57;;;3.78;;
23449;SDS011;11897;45.438;12.128;2023-04-01T08:40:37;8.82;;;4.78;;
23449;SDS011;11897;45.438;12.128;2023-04-01T08:43:07;6.30;;;4.68;;
23449;SDS011;11897;45.438;12.128;2023-04-01T08:45:48;7.72;;;4.63;;
23449;SDS011;11897;45.438;12.128;2023-04-01T08:48:33;3.85;;;3.15;;
23449;SDS011;11897;45.438;12.128;2023-04-01T08:54:03;4.63;;;3.20;;
23449;SDS011;11897;45.438;12.128;2023-04-01T08:56:33;6.88;;;3.17;;
23449;SDS011;11897;45.438;12.128;2023-04-01T08:59:22;3.50;;;2.20;;
23449;SDS011;11897;45.438;12.128;2023-04-01T09:01:58;4.45;;;2.78;;
23449;SDS011;11897;45.438;12.128;2023-04-01T09:07:38;6.53;;;3.13;;
23449;SDS011;11897;45.438;12.128;2023-04-01T09:12:51;4.90;;;3.13;;
23449;SDS011;11897;45.438;12.128;2023-04-01T09:15:21;4.18;;;3.03;;
23449;SDS011;11897;45.438;12.128;2023-04-01T09:18:09;4.38;;;2.75;;
23449;SDS011;11897;45.438;12.128;2023-04-01T09:20:47;4.90;;;2.20;;
23449;SDS011;11897;45.438;12.128;2023-04-01T09:23:32;5.45;;;3.40;;
23449;SDS011;11897;45.438;12.128;2023-04-01T09:26:05;3.80;;;2.95;;
23449;SDS011;11897;45.438;12.128;2023-04-01T09:28:38;7.65;;;3.70;;
23449;SDS011;11897;45.438;12.128;2023-04-01T09:31:24;4.20;;;2.65;;
23449;SDS011;11897;45.438;12.128;2023-04-01T09:34:19;4.70;;;3.20;;
23449;SDS011;11897;45.438;12.128;2023-04-01T09:37:00;3.95;;;2.88;;
23449;SDS011;11897;45.438;12.128;2023-04-01T09:39:36;4.40;;;2.28;;
23449;SDS011;11897;45.438;12.128;2023-04-01T09:42:14;3.13;;;1.80;;
23449;SDS011;11897;45.438;12.128;2023-04-01T09:44:57;2.15;;;1.65;;
23449;SDS011;11897;45.438;12.128;2023-04-01T09:47:36;2.50;;;1.90;;
23449;SDS011;11897;45.438;12.128;2023-04-01T09:50:29;2.92;;;2.05;;
23449;SDS011;11897;45.438;12.128;2023-04-01T09:53:01;3.20;;;2.13;;
23449;SDS011;11897;45.438;12.128;2023-04-01T09:55:46;4.25;;;2.30;;
23449;SDS011;11897;45.438;12.128;2023-04-01T09:58:27;2.80;;;2.00;;
23449;SDS011;11897;45.438;12.128;2023-04-01T10:01:25;4.13;;;2.15;;
23449;SDS011;11897;45.438;12.128;2023-04-01T10:04:05;2.75;;;2.10;;
23449;SDS011;11897;45.438;12.128;2023-04-01T10:06:46;4.43;;;2.30;;
23449;SDS011;11897;45.438;12.128;2023-04-01T10:09:26;2.97;;;2.13;;
23449;SDS011;11897;45.438;12.128;2023-04-01T10:12:06;3.17;;;2.13;;
23449;SDS011;11897;45.438;12.128;2023-04-01T10:17:30;3.70;;;2.35;;
23449;SDS011;11897;45.438;12.128;2023-04-01T10:20:11;4.13;;;2.38;;
23449;SDS011;11897;45.438;12.128;2023-04-01T10:22:44;2.35;;;1.85;;
23449;SDS011;11897;45.438;12.128;2023-04-01T10:28:16;3.47;;;1.83;;
23449;SDS011;11897;45.438;12.128;2023-04-01T10:36:36;3.17;;;1.83;;
23449;SDS011;11897;45.438;12.128;2023-04-01T10:42:31;2.70;;;2.40;;
23449;SDS011;11897;45.438;12.128;2023-04-01T10:48:24;1.73;;;1.60;;
23449;SDS011;11897;45.438;12.128;2023-04-01T10:53:42;2.95;;;1.83;;
23449;SDS011;11897;45.438;12.128;2023-04-01T11:05:56;2.45;;;1.90;;
23449;SDS011;11897;45.438;12.128;2023-04-01T11:08:37;2.35;;;1.52;;
23449;SDS011;11897;45.438;12.128;2023-04-01T11:11:20;1.88;;;1.50;;
23449;SDS011;11897;45.438;12.128;2023-04-01T11:14:08;4.95;;;2.88;;
23449;SDS011;11897;45.438;12.128;2023-04-01T11:16:47;4.65;;;3.55;;
23449;SDS011;11897;45.438;12.128;2023-04-01T11:19:29;4.47;;;3.40;;
23449;SDS011;11897;45.438;12.128;2023-04-01T11:22:12;4.85;;;3.60;;
23449;SDS011;11897;45.438;12.128;2023-04-01T11:24:55;5.25;;;3.92;;
23449;SDS011;11897;45.438;12.128;2023-04-01T11:30:24;5.93;;;4.13;;
23449;SDS011;11897;45.438;12.128;2023-04-01T11:32:57;8.20;;;5.15;;
23449;SDS011;11897;45.438;12.128;2023-04-01T11:35:34;6.38;;;4.85;;
23449;SDS011;11897;45.438;12.128;2023-04-01T11:38:06;7.95;;;4.63;;
23449;SDS011;11897;45.438;12.128;2023-04-01T11:40:47;7.50;;;4.43;;
23449;SDS011;11897;45.438;12.128;2023-04-01T11:43:25;7.63;;;4.72;;
23449;SDS011;11897;45.438;12.128;2023-04-01T11:46:16;6.25;;;4.40;;
23449;SDS011;11897;45.438;12.128;2023-04-01T11:48:52;7.07;;;4.40;;
23449;SDS011;11897;45.438;12.128;2023-04-01T11:51:50;7.22;;;5.18;;
23449;SDS011;11897;45.438;12.128;2023-04-01T11:54:46;7.45;;;5.28;;
23449;SDS011;11897;45.438;12.128;2023-04-01T11:57:24;5.82;;;4.45;;
23449;SDS011;11897;45.438;12.128;2023-04-01T11:59:58;7.18;;;4.70;;
23449;SDS011;11897;45.438;12.128;2023-04-01T12:02:42;7.32;;;4.38;;
23449;SDS011;11897;45.438;12.128;2023-04-01T12:05:29;10.40;;;5.68;;
23449;SDS011;11897;45.438;12.128;2023-04-01T12:08:09;9.00;;;5.53;;
23449;SDS011;11897;45.438;12.128;2023-04-01T12:10:41;6.97;;;4.25;;
23449;SDS011;11897;45.438;12.128;2023-04-01T12:13:16;9.00;;;5.32;;
23449;SDS011;11897;45.438;12.128;2023-04-01T12:15:54;6.18;;;4.50;;
23449;SDS011;11897;45.438;12.128;2023-04-01T12:18:26;6.20;;;3.95;;
23449;SDS011;11897;45.438;12.128;2023-04-01T12:20:57;6.43;;;4.43;;
23449;SDS011;11897;45.438;12.128;2023-04-01T12:23:32;9.32;;;5.10;;
23449;SDS011;11897;45.438;12.128;2023-04-01T12:26:18;9.13;;;5.33;;
23449;SDS011;11897;45.438;12.128;2023-04-01T12:28:49;5.68;;;3.92;;
23449;SDS011;11897;45.438;12.128;2023-04-01T12:31:25;10.82;;;4.72;;
23449;SDS011;11897;45.438;12.128;2023-04-01T12:34:05;5.65;;;3.92;;
23449;SDS011;11897;45.438;12.128;2023-04-01T12:36:40;6.28;;;3.33;;
23449;SDS011;11897;45.438;12.128;2023-04-01T12:39:22;7.90;;;4.00;;
23449;SDS011;11897;45.438;12.128;2023-04-01T12:42:01;8.02;;;4.32;;
23449;SDS011;11897;45.438;12.128;2023-04-01T12:44:32;6.65;;;3.45;;
23449;SDS011;11897;45.438;12.128;2023-04-01T12:49:54;3.85;;;2.70;;
23449;SDS011;11897;45.438;12.128;2023-04-01T12:52:22;3.17;;;2.78;;
23449;SDS011;11897;45.438;12.128;2023-04-01T13:00:46;4.30;;;2.67;;
23449;SDS011;11897;45.438;12.128;2023-04-01T13:03:23;5.00;;;2.53;;
23449;SDS011;11897;45.438;12.128;2023-04-01T13:08:43;3.03;;;2.13;;
23449;SDS011;11897;45.438;12.128;2023-04-01T13:11:14;3.65;;;2.22;;
23449;SDS011;11897;45.438;12.128;2023-04-01T13:16:41;6.18;;;2.67;;
23449;SDS011;11897;45.438;12.128;2023-04-01T13:19:11;3.20;;;2.53;;
23449;SDS011;11897;45.438;12.128;2023-04-01T13:21:43;3.88;;;2.65;;
23449;SDS011;11897;45.438;12.128;2023-04-01T13:24:15;3.97;;;2.53;;
23449;SDS011;11897;45.438;12.128;2023-04-01T13:26:49;11.18;;;3.20;;
23449;SDS011;11897;45.438;12.128;2023-04-01T13:29:21;2.60;;;2.20;;
23449;SDS011;11897;45.438;12.128;2023-04-01T13:31:53;6.78;;;3.05;;
23449;SDS011;11897;45.438;12.128;2023-04-01T13:34:30;3.08;;;2.10;;
23449;SDS011;11897;45.438;12.128;2023-04-01T13:37:01;4.20;;;2.53;;
23449;SDS011;11897;45.438;12.128;2023-04-01T13:39:41;5.03;;;3.50;;
23449;SDS011;11897;45.438;12.128;2023-04-01T13:42:13;2.85;;;2.22;;
23449;SDS011;11897;45.438;12.128;2023-04-01T13:44:43;2.85;;;2.03;;
23449;SDS011;11897;45.438;12.128;2023-04-01T13:47:17;4.53;;;2.67;;
23449;SDS011;11897;45.438;12.128;2023-04-01T13:49:59;3.80;;;2.30;;
23449;SDS011;11897;45.438;12.128;2023-04-01T13:55:29;3.17;;;2.03;;
23449;SDS011;11897;45.438;12.128;2023-04-01T13:58:04;8.02;;;2.90;;
23449;SDS011;11897;45.438;12.128;2023-04-01T14:00:42;2.63;;;1.85;;
23449;SDS011;11897;45.438;12.128;2023-04-01T14:03:24;1.73;;;1.33;;
23449;SDS011;11897;45.438;12.128;2023-04-01T14:06:02;2.95;;;2.22;;
23449;SDS011;11897;45.438;12.128;2023-04-01T14:11:24;1.75;;;1.15;;
23449;SDS011;11897;45.438;12.128;2023-04-01T14:13:56;2.42;;;1.85;;
23449;SDS011;11897;45.438;12.128;2023-04-01T14:19:22;2.78;;;1.95;;
23449;SDS011;11897;45.438;12.128;2023-04-01T14:21:55;2.55;;;2.00;;
23449;SDS011;11897;45.438;12.128;2023-04-01T14:24:30;1.92;;;1.60;;
23449;SDS011;11897;45.438;12.128;2023-04-01T14:27:04;2.35;;;1.70;;
23449;SDS011;11897;45.438;12.128;2023-04-01T14:29:36;4.93;;;2.45;;
23449;SDS011;11897;45.438;12.128;2023-04-01T14:32:06;2.95;;;1.67;;
23449;SDS011;11897;45.438;12.128;2023-04-01T14:37:34;2.30;;;1.88;;
23449;SDS011;11897;45.438;12.128;2023-04-01T14:40:21;2.60;;;2.03;;
23449;SDS011;11897;45.438;12.128;2023-04-01T14:42:54;3.95;;;2.58;;
23449;SDS011;11897;45.438;12.128;2023-04-01T14:45:27;3.35;;;2.30;;
23449;SDS011;11897;45.438;12.128;2023-04-01T14:47:58;4.32;;;1.77;;
23449;SDS011;11897;45.438;12.128;2023-04-01T14:50:27;3.25;;;2.10;;
23449;SDS011;11897;45.438;12.128;2023-04-01T14:52:57;2.25;;;2.05;;
23449;SDS011;11897;45.438;12.128;2023-04-01T14:55:29;4.35;;;1.75;;
23449;SDS011;11897;45.438;12.128;2023-04-01T14:57:58;3.42;;;2.25;;
23449;SDS011;11897;45.438;12.128;2023-04-01T15:00:24;2.10;;;1.73;;
23449;SDS011;11897;45.438;12.128;2023-04-01T15:02:53;6.40;;;2.50;;
23449;SDS011;11897;45.438;12.128;2023-04-01T15:05:27;3.83;;;2.50;;
23449;SDS011;11897;45.438;12.128;2023-04-01T15:08:00;4.00;;;2.47;;
23449;SDS011;11897;45.438;12.128;2023-04-01T15:13:12;3.08;;;2.22;;
23449;SDS011;11897;45.438;12.128;2023-04-01T15:15:43;4.88;;;1.75;;
23449;SDS011;11897;45.438;12.128;2023-04-01T15:18:11;3.65;;;2.10;;
23449;SDS011;11897;45.438;12.128;2023-04-01T15:20:50;7.70;;;2.22;;
23449;SDS011;11897;45.438;12.128;2023-04-01T15:23:40;4.95;;;2.33;;
23449;SDS011;11897;45.438;12.128;2023-04-01T15:26:14;5.90;;;2.92;;
23449;SDS011;11897;45.438;12.128;2023-04-01T15:28:49;4.55;;;3.25;;
23449;SDS011;11897;45.438;12.128;2023-04-01T15:31:20;7.47;;;4.20;;
23449;SDS011;11897;45.438;12.128;2023-04-01T15:33:54;7.53;;;3.20;;
23449;SDS011;11897;45.438;12.128;2023-04-01T15:36:28;6.35;;;3.33;;
23449;SDS011;11897;45.438;12.128;2023-04-01T15:39:00;6.68;;;3.20;;
23449;SDS011;11897;45.438;12.128;2023-04-01T15:41:35;5.80;;;3.13;;
23449;SDS011;11897;45.438;12.128;2023-04-01T15:44:02;5.25;;;2.88;;
23449;SDS011;11897;45.438;12.128;2023-04-01T15:46:43;9.20;;;3.25;;
23449;SDS011;11897;45.438;12.128;2023-04-01T15:49:13;4.97;;;2.88;;
23449;SDS011;11897;45.438;12.128;2023-04-01T15:51:45;4.40;;;2.63;;
23449;SDS011;11897;45.438;12.128;2023-04-01T15:54:27;3.17;;;2.45;;
23449;SDS011;11897;45.438;12.128;2023-04-01T15:57:00;3.65;;;2.55;;
23449;SDS011;11897;45.438;12.128;2023-04-01T15:59:36;4.72;;;2.63;;
23449;SDS011;11897;45.438;12.128;2023-04-01T16:02:07;6.07;;;2.83;;
23449;SDS011;11897;45.438;12.128;2023-04-01T16:04:43;6.40;;;3.30;;
23449;SDS011;11897;45.438;12.128;2023-04-01T16:07:17;4.50;;;3.47;;
23449;SDS011;11897;45.438;12.128;2023-04-01T16:09:55;6.40;;;3.30;;
23449;SDS011;11897;45.438;12.128;2023-04-01T16:12:29;5.30;;;2.73;;
23449;SDS011;11897;45.438;12.128;2023-04-01T16:15:01;5.70;;;3.87;;
23449;SDS011;11897;45.438;12.128;2023-04-01T16:17:38;3.83;;;2.80;;
23449;SDS011;11897;45.438;12.128;2023-04-01T16:20:15;3.10;;;2.33;;
23449;SDS011;11897;45.438;12.128;2023-04-01T16:22:45;6.10;;;3.07;;
23449;SDS011;11897;45.438;12.128;2023-04-01T16:25:19;8.67;;;2.83;;
23449;SDS011;11897;45.438;12.128;2023-04-01T16:27:49;7.97;;;2.73;;
23449;SDS011;11897;45.438;12.128;2023-04-01T16:30:23;6.97;;;2.87;;